sensor_id;sensor_type;location;lat;lon;timestamp;pressure;altitude;pressure_sealevel;temperature
69186;BMP280;56298;49.246;9.410;2022-12-18T00:01:27;100659.81;;;-8.73
69186;BMP280;56298;49.246;9.410;2022-12-18T00:03:54;100662.09;;;-8.70
69186;BMP280;56298;49.246;9.410;2022-12-18T00:06:20;100669.69;;;-8.67
69186;BMP280;56298;49.246;9.410;2022-12-18T00:08:46;100667.28;;;-8.77
69186;BMP280;56298;49.246;9.410;2022-12-18T00:11:18;100675.47;;;-8.79
69186;BMP280;56298;49.246;9.410;2022-12-18T00:13:44;100669.50;;;-8.81
69186;BMP280;56298;49.246;9.410;2022-12-18T00:16:12;100674.19;;;-8.83
69186;BMP280;56298;49.246;9.410;2022-12-18T00:18:38;100672.72;;;-8.85
69186;BMP280;56298;49.246;9.410;2022-12-18T00:21:06;100674.16;;;-8.98
69186;BMP280;56298;49.246;9.410;2022-12-18T00:23:33;100683.94;;;-8.98
69186;BMP280;56298;49.246;9.410;2022-12-18T00:26:03;100679.28;;;-8.96
69186;BMP280;56298;49.246;9.410;2022-12-18T00:28:29;100679.00;;;-9.02
69186;BMP280;56298;49.246;9.410;2022-12-18T00:31:06;100686.47;;;-9.05
69186;BMP280;56298;49.246;9.410;2022-12-18T00:33:32;100687.47;;;-9.21
69186;BMP280;56298;49.246;9.410;2022-12-18T00:36:05;100694.94;;;-9.25
69186;BMP280;56298;49.246;9.410;2022-12-18T00:38:31;100683.09;;;-9.14
69186;BMP280;56298;49.246;9.410;2022-12-18T00:40:56;100678.78;;;-9.15
69186;BMP280;56298;49.246;9.410;2022-12-18T00:43:21;100672.75;;;-9.24
69186;BMP280;56298;49.246;9.410;2022-12-18T00:45:47;100676.19;;;-9.23
69186;BMP280;56298;49.246;9.410;2022-12-18T00:48:12;100671.28;;;-9.35
69186;BMP280;56298;49.246;9.410;2022-12-18T00:50:37;100675.28;;;-9.31
69186;BMP280;56298;49.246;9.410;2022-12-18T00:53:03;100674.19;;;-9.21
69186;BMP280;56298;49.246;9.410;2022-12-18T00:55:28;100677.53;;;-9.28
69186;BMP280;56298;49.246;9.410;2022-12-18T00:57:53;100679.19;;;-9.27
69186;BMP280;56298;49.246;9.410;2022-12-18T01:00:19;100696.06;;;-9.19
69186;BMP280;56298;49.246;9.410;2022-12-18T01:02:44;100695.13;;;-9.03
69186;BMP280;56298;49.246;9.410;2022-12-18T01:05:11;100685.34;;;-9.03
69186;BMP280;56298;49.246;9.410;2022-12-18T01:07:37;100693.94;;;-9.01
69186;BMP280;56298;49.246;9.410;2022-12-18T01:10:03;100694.69;;;-8.92
69186;BMP280;56298;49.246;9.410;2022-12-18T01:12:29;100692.28;;;-8.87
69186;BMP280;56298;49.246;9.410;2022-12-18T01:14:54;100683.88;;;-8.90
69186;BMP280;56298;49.246;9.410;2022-12-18T01:17:19;100691.09;;;-8.99
69186;BMP280;56298;49.246;9.410;2022-12-18T01:19:45;100689.72;;;-8.95
69186;BMP280;56298;49.246;9.410;2022-12-18T01:22:10;100683.00;;;-9.06
69186;BMP280;56298;49.246;9.410;2022-12-18T01:24:35;100698.06;;;-8.98
69186;BMP280;56298;49.246;9.410;2022-12-18T01:27:00;100693.13;;;-8.86
69186;BMP280;56298;49.246;9.410;2022-12-18T01:29:26;100693.81;;;-8.84
69186;BMP280;56298;49.246;9.410;2022-12-18T01:31:54;100692.22;;;-8.78
69186;BMP280;56298;49.246;9.410;2022-12-18T01:34:20;100684.41;;;-8.95
69186;BMP280;56298;49.246;9.410;2022-12-18T01:36:45;100685.28;;;-8.79
69186;BMP280;56298;49.246;9.410;2022-12-18T01:39:12;100702.75;;;-9.00
69186;BMP280;56298;49.246;9.410;2022-12-18T01:41:38;100703.72;;;-9.01
69186;BMP280;56298;49.246;9.410;2022-12-18T01:44:58;100696.16;;;-9.04
69186;BMP280;56298;49.246;9.410;2022-12-18T01:47:32;100699.53;;;-8.95
69186;BMP280;56298;49.246;9.410;2022-12-18T01:50:02;100694.44;;;-9.05
69186;BMP280;56298;49.246;9.410;2022-12-18T01:52:31;100706.25;;;-9.08
69186;BMP280;56298;49.246;9.410;2022-12-18T01:55:00;100696.66;;;-9.09
69186;BMP280;56298;49.246;9.410;2022-12-18T01:57:27;100689.13;;;-9.05
69186;BMP280;56298;49.246;9.410;2022-12-18T01:59:57;100683.56;;;-9.10
69186;BMP280;56298;49.246;9.410;2022-12-18T02:02:26;100679.59;;;-9.15
69186;BMP280;56298;49.246;9.410;2022-12-18T02:04:52;100683.25;;;-9.16
69186;BMP280;56298;49.246;9.410;2022-12-18T02:07:33;100697.50;;;-9.08
69186;BMP280;56298;49.246;9.410;2022-12-18T02:10:29;100704.81;;;-9.10
69186;BMP280;56298;49.246;9.410;2022-12-18T02:13:11;100713.59;;;-9.10
69186;BMP280;56298;49.246;9.410;2022-12-18T02:15:51;100715.44;;;-9.10
69186;BMP280;56298;49.246;9.410;2022-12-18T02:18:23;100719.03;;;-9.03
69186;BMP280;56298;49.246;9.410;2022-12-18T02:21:09;100717.53;;;-8.82
69186;BMP280;56298;49.246;9.410;2022-12-18T02:23:56;100721.63;;;-8.95
69186;BMP280;56298;49.246;9.410;2022-12-18T02:26:34;100734.25;;;-8.97
69186;BMP280;56298;49.246;9.410;2022-12-18T02:29:05;100719.03;;;-9.03
69186;BMP280;56298;49.246;9.410;2022-12-18T02:31:51;100704.00;;;-9.11
69186;BMP280;56298;49.246;9.410;2022-12-18T02:34:18;100691.72;;;-9.12
69186;BMP280;56298;49.246;9.410;2022-12-18T02:36:45;100689.94;;;-9.20
69186;BMP280;56298;49.246;9.410;2022-12-18T02:39:12;100700.94;;;-9.08
69186;BMP280;56298;49.246;9.410;2022-12-18T02:41:38;100706.00;;;-9.13
69186;BMP280;56298;49.246;9.410;2022-12-18T02:44:10;100715.44;;;-9.10
69186;BMP280;56298;49.246;9.410;2022-12-18T02:46:39;100719.75;;;-8.94
69186;BMP280;56298;49.246;9.410;2022-12-18T02:49:11;100732.50;;;-8.81
69186;BMP280;56298;49.246;9.410;2022-12-18T03:00:48;100708.34;;;-9.18
69186;BMP280;56298;49.246;9.410;2022-12-18T03:03:47;100709.19;;;-9.18
69186;BMP280;56298;49.246;9.410;2022-12-18T03:06:17;100708.34;;;-9.18
69186;BMP280;56298;49.246;9.410;2022-12-18T03:08:48;100704.34;;;-9.14
69186;BMP280;56298;49.246;9.410;2022-12-18T03:11:15;100707.09;;;-9.07
69186;BMP280;56298;49.246;9.410;2022-12-18T03:14:01;100704.38;;;-8.99
69186;BMP280;56298;49.246;9.410;2022-12-18T03:16:31;100703.72;;;-9.01
69186;BMP280;56298;49.246;9.410;2022-12-18T03:18:59;100704.13;;;-9.04
69186;BMP280;56298;49.246;9.410;2022-12-18T03:21:35;100702.84;;;-9.17
69186;BMP280;56298;49.246;9.410;2022-12-18T03:24:06;100707.53;;;-9.19
69186;BMP280;56298;49.246;9.410;2022-12-18T03:26:35;100704.44;;;-9.07
69186;BMP280;56298;49.246;9.410;2022-12-18T03:29:09;100710.72;;;-9.00
69186;BMP280;56298;49.246;9.410;2022-12-18T03:31:40;100710.84;;;-8.93
69186;BMP280;56298;49.246;9.410;2022-12-18T03:34:10;100718.97;;;-8.95
69186;BMP280;56298;49.246;9.410;2022-12-18T03:36:38;100718.81;;;-8.93
69186;BMP280;56298;49.246;9.410;2022-12-18T03:39:03;100716.84;;;-9.00
69186;BMP280;56298;49.246;9.410;2022-12-18T03:41:38;100717.09;;;-9.09
69186;BMP280;56298;49.246;9.410;2022-12-18T03:44:14;100721.28;;;-9.15
69186;BMP280;56298;49.246;9.410;2022-12-18T03:49:33;100714.75;;;-9.04
69186;BMP280;56298;49.246;9.410;2022-12-18T03:52:06;100725.09;;;-8.94
69186;BMP280;56298;49.246;9.410;2022-12-18T03:54:33;100734.13;;;-8.80
69186;BMP280;56298;49.246;9.410;2022-12-18T03:57:10;100732.16;;;-9.02
69186;BMP280;56298;49.246;9.410;2022-12-18T03:59:38;100730.66;;;-9.28
69186;BMP280;56298;49.246;9.410;2022-12-18T04:02:06;100740.22;;;-9.18
69186;BMP280;56298;49.246;9.410;2022-12-18T04:04:32;100728.13;;;-9.21
69186;BMP280;56298;49.246;9.410;2022-12-18T04:06:58;100727.59;;;-9.16
69186;BMP280;56298;49.246;9.410;2022-12-18T04:09:24;100724.94;;;-9.16
69186;BMP280;56298;49.246;9.410;2022-12-18T04:11:51;100732.66;;;-9.06
69186;BMP280;56298;49.246;9.410;2022-12-18T04:14:16;100732.06;;;-9.17
69186;BMP280;56298;49.246;9.410;2022-12-18T04:16:42;100734.56;;;-9.15
69186;BMP280;56298;49.246;9.410;2022-12-18T04:19:07;100733.56;;;-9.14
69186;BMP280;56298;49.246;9.410;2022-12-18T04:21:32;100726.06;;;-9.10
69186;BMP280;56298;49.246;9.410;2022-12-18T04:23:58;100727.72;;;-9.09
69186;BMP280;56298;49.246;9.410;2022-12-18T04:26:23;100735.31;;;-9.06
69186;BMP280;56298;49.246;9.410;2022-12-18T04:28:48;100734.84;;;-9.10
69186;BMP280;56298;49.246;9.410;2022-12-18T04:31:14;100732.16;;;-8.87
69186;BMP280;56298;49.246;9.410;2022-12-18T04:33:39;100726.34;;;-8.82
69186;BMP280;56298;49.246;9.410;2022-12-18T04:36:05;100734.56;;;-9.15
69186;BMP280;56298;49.246;9.410;2022-12-18T04:38:30;100731.50;;;-9.27
69186;BMP280;56298;49.246;9.410;2022-12-18T04:40:55;100742.00;;;-9.34
69186;BMP280;56298;49.246;9.410;2022-12-18T04:43:21;100743.16;;;-9.36
69186;BMP280;56298;49.246;9.410;2022-12-18T04:45:46;100733.19;;;-9.34
69186;BMP280;56298;49.246;9.410;2022-12-18T04:48:11;100744.94;;;-9.29
69186;BMP280;56298;49.246;9.410;2022-12-18T04:50:36;100738.06;;;-9.46
69186;BMP280;56298;49.246;9.410;2022-12-18T04:53:02;100728.91;;;-9.44
69186;BMP280;56298;49.246;9.410;2022-12-18T04:55:27;100730.78;;;-9.21
69186;BMP280;56298;49.246;9.410;2022-12-18T04:57:53;100735.47;;;-9.23
69186;BMP280;56298;49.246;9.410;2022-12-18T05:00:18;100742.38;;;-9.14
69186;BMP280;56298;49.246;9.410;2022-12-18T05:02:44;100733.50;;;-9.06
69186;BMP280;56298;49.246;9.410;2022-12-18T05:05:09;100737.66;;;-9.03
69186;BMP280;56298;49.246;9.410;2022-12-18T05:07:34;100743.47;;;-9.08
69186;BMP280;56298;49.246;9.410;2022-12-18T05:10:00;100739.03;;;-9.16
69186;BMP280;56298;49.246;9.410;2022-12-18T05:12:25;100736.38;;;-9.16
69186;BMP280;56298;49.246;9.410;2022-12-18T05:14:50;100745.63;;;-9.03
69186;BMP280;56298;49.246;9.410;2022-12-18T05:17:16;100743.97;;;-9.04
69186;BMP280;56298;49.246;9.410;2022-12-18T05:19:41;100736.00;;;-9.04
69186;BMP280;56298;49.246;9.410;2022-12-18T05:22:08;100736.00;;;-9.04
69186;BMP280;56298;49.246;9.410;2022-12-18T05:24:33;100740.94;;;-9.01
69186;BMP280;56298;49.246;9.410;2022-12-18T05:26:59;100746.31;;;-9.09
69186;BMP280;56298;49.246;9.410;2022-12-18T05:29:24;100742.00;;;-9.10
69186;BMP280;56298;49.246;9.410;2022-12-18T05:31:49;100746.31;;;-9.09
69186;BMP280;56298;49.246;9.410;2022-12-18T05:34:15;100744.59;;;-9.02
69186;BMP280;56298;49.246;9.410;2022-12-18T05:36:40;100749.75;;;-9.01
69186;BMP280;56298;49.246;9.410;2022-12-18T05:39:06;100745.75;;;-9.05
69186;BMP280;56298;49.246;9.410;2022-12-18T05:41:31;100746.50;;;-9.11
69186;BMP280;56298;49.246;9.410;2022-12-18T05:43:58;100745.44;;;-9.02
69186;BMP280;56298;49.246;9.410;2022-12-18T05:46:23;100748.91;;;-9.01
69186;BMP280;56298;49.246;9.410;2022-12-18T05:48:49;100759.03;;;-9.05
69186;BMP280;56298;49.246;9.410;2022-12-18T05:51:18;100760.81;;;-8.97
69186;BMP280;56298;49.246;9.410;2022-12-18T05:53:44;100765.81;;;-8.94
69186;BMP280;56298;49.246;9.410;2022-12-18T05:56:12;100764.66;;;-9.00
69186;BMP280;56298;49.246;9.410;2022-12-18T05:58:38;100777.78;;;-8.98
69186;BMP280;56298;49.246;9.410;2022-12-18T06:01:15;100777.16;;;-8.85
69186;BMP280;56298;49.246;9.410;2022-12-18T06:03:41;100768.56;;;-8.87
69186;BMP280;56298;49.246;9.410;2022-12-18T06:06:18;100766.25;;;-8.90
69186;BMP280;56298;49.246;9.410;2022-12-18T06:08:44;100768.56;;;-8.87
69186;BMP280;56298;49.246;9.410;2022-12-18T06:11:09;100772.91;;;-8.94
69186;BMP280;56298;49.246;9.410;2022-12-18T06:13:35;100776.94;;;-8.98
69186;BMP280;56298;49.246;9.410;2022-12-18T06:16:06;100779.41;;;-8.97
69186;BMP280;56298;49.246;9.410;2022-12-18T06:18:32;100785.03;;;-8.92
69186;BMP280;56298;49.246;9.410;2022-12-18T06:20:58;100781.19;;;-8.89
69186;BMP280;56298;49.246;9.410;2022-12-18T06:23:24;100775.44;;;-8.93
69186;BMP280;56298;49.246;9.410;2022-12-18T06:25:50;100774.94;;;-8.96
69186;BMP280;56298;49.246;9.410;2022-12-18T06:28:15;100777.53;;;-8.88
69186;BMP280;56298;49.246;9.410;2022-12-18T06:30:44;100779.19;;;-8.87
69186;BMP280;56298;49.246;9.410;2022-12-18T06:33:09;100781.19;;;-8.89
69186;BMP280;56298;49.246;9.410;2022-12-18T06:35:34;100781.84;;;-8.87
69186;BMP280;56298;49.246;9.410;2022-12-18T06:38:01;100792.38;;;-8.94
69186;BMP280;56298;49.246;9.410;2022-12-18T06:40:26;100789.38;;;-8.91
69186;BMP280;56298;49.246;9.410;2022-12-18T06:42:51;100789.41;;;-8.99
69186;BMP280;56298;49.246;9.410;2022-12-18T06:45:17;100784.28;;;-9.01
69186;BMP280;56298;49.246;9.410;2022-12-18T06:47:42;100784.22;;;-8.92
69186;BMP280;56298;49.246;9.410;2022-12-18T06:50:08;100790.88;;;-8.96
69186;BMP280;56298;49.246;9.410;2022-12-18T06:52:33;100799.91;;;-9.06
69186;BMP280;56298;49.246;9.410;2022-12-18T06:54:59;100794.28;;;-9.03
69186;BMP280;56298;49.246;9.410;2022-12-18T06:57:24;100795.38;;;-8.97
69186;BMP280;56298;49.246;9.410;2022-12-18T06:59:50;100805.19;;;-8.97
69186;BMP280;56298;49.246;9.410;2022-12-18T07:02:15;100803.91;;;-8.87
69186;BMP280;56298;49.246;9.410;2022-12-18T07:04:41;100807.97;;;-8.91
69186;BMP280;56298;49.246;9.410;2022-12-18T07:07:06;100805.50;;;-8.92
69186;BMP280;56298;49.246;9.410;2022-12-18T07:09:32;100810.81;;;-8.92
69186;BMP280;56298;49.246;9.410;2022-12-18T07:11:57;100820.44;;;-8.91
69186;BMP280;56298;49.246;9.410;2022-12-18T07:14:22;100819.78;;;-8.93
69186;BMP280;56298;49.246;9.410;2022-12-18T07:16:47;100818.88;;;-8.85
69186;BMP280;56298;49.246;9.410;2022-12-18T07:19:13;100822.13;;;-8.75
69186;BMP280;56298;49.246;9.410;2022-12-18T07:21:38;100829.78;;;-8.72
69186;BMP280;56298;49.246;9.410;2022-12-18T07:24:03;100828.84;;;-8.64
69186;BMP280;56298;49.246;9.410;2022-12-18T07:26:29;100830.59;;;-8.71
69186;BMP280;56298;49.246;9.410;2022-12-18T07:28:56;100829.78;;;-8.57
69186;BMP280;56298;49.246;9.410;2022-12-18T07:31:22;100833.91;;;-8.54
69186;BMP280;56298;49.246;9.410;2022-12-18T07:33:48;100836.69;;;-8.47
69186;BMP280;56298;49.246;9.410;2022-12-18T07:36:14;100834.06;;;-8.32
69186;BMP280;56298;49.246;9.410;2022-12-18T07:38:40;100839.94;;;-8.22
69186;BMP280;56298;49.246;9.410;2022-12-18T07:41:09;100841.88;;;-8.16
69186;BMP280;56298;49.246;9.410;2022-12-18T07:43:35;100851.34;;;-8.13
69186;BMP280;56298;49.246;9.410;2022-12-18T07:46:01;100846.13;;;-7.91
69186;BMP280;56298;49.246;9.410;2022-12-18T07:48:28;100832.75;;;-7.83
69186;BMP280;56298;49.246;9.410;2022-12-18T07:50:53;100837.66;;;-7.65
69186;BMP280;56298;49.246;9.410;2022-12-18T07:53:18;100839.19;;;-7.40
69186;BMP280;56298;49.246;9.410;2022-12-18T07:55:44;100825.47;;;-7.22
69186;BMP280;56298;49.246;9.410;2022-12-18T07:58:09;100840.56;;;-7.07
69186;BMP280;56298;49.246;9.410;2022-12-18T08:00:35;100840.84;;;-7.02
69186;BMP280;56298;49.246;9.410;2022-12-18T08:03:00;100836.50;;;-7.03
69186;BMP280;56298;49.246;9.410;2022-12-18T08:05:26;100835.69;;;-6.82
69186;BMP280;56298;49.246;9.410;2022-12-18T08:07:51;100840.63;;;-6.79
69186;BMP280;56298;49.246;9.410;2022-12-18T08:10:17;100843.44;;;-6.65
69186;BMP280;56298;49.246;9.410;2022-12-18T08:12:42;100848.25;;;-6.54
69186;BMP280;56298;49.246;9.410;2022-12-18T08:15:08;100849.31;;;-6.48
69186;BMP280;56298;49.246;9.410;2022-12-18T08:17:33;100840.66;;;-6.22
69186;BMP280;56298;49.246;9.410;2022-12-18T08:19:59;100840.75;;;-6.37
69186;BMP280;56298;49.246;9.410;2022-12-18T08:22:24;100848.06;;;-6.24
69186;BMP280;56298;49.246;9.410;2022-12-18T08:24:50;100841.66;;;-6.01
69186;BMP280;56298;49.246;9.410;2022-12-18T08:27:15;100846.06;;;-5.79
69186;BMP280;56298;49.246;9.410;2022-12-18T08:29:40;100846.94;;;-5.59
69186;BMP280;56298;49.246;9.410;2022-12-18T08:32:27;100848.81;;;-5.52
69186;BMP280;56298;49.246;9.410;2022-12-18T08:34:53;100860.84;;;-5.28
69186;BMP280;56298;49.246;9.410;2022-12-18T08:37:19;100859.84;;;-5.13
69186;BMP280;56298;49.246;9.410;2022-12-18T08:39:44;100855.31;;;-5.06
69186;BMP280;56298;49.246;9.410;2022-12-18T08:42:10;100854.28;;;-5.05
69186;BMP280;56298;49.246;9.410;2022-12-18T08:44:56;100849.41;;;-4.74
69186;BMP280;56298;49.246;9.410;2022-12-18T08:47:22;100857.25;;;-4.66
69186;BMP280;56298;49.246;9.410;2022-12-18T08:49:47;100858.41;;;-4.48
69186;BMP280;56298;49.246;9.410;2022-12-18T08:52:12;100854.75;;;-4.40
69186;BMP280;56298;49.246;9.410;2022-12-18T08:54:37;100851.00;;;-4.19
69186;BMP280;56298;49.246;9.410;2022-12-18T08:57:03;100848.09;;;-4.18
69186;BMP280;56298;49.246;9.410;2022-12-18T08:59:28;100842.81;;;-4.45
69186;BMP280;56298;49.246;9.410;2022-12-18T09:01:54;100846.88;;;-4.28
69186;BMP280;56298;49.246;9.410;2022-12-18T09:04:20;100843.75;;;-4.12
69186;BMP280;56298;49.246;9.410;2022-12-18T09:06:45;100846.78;;;-3.95
69186;BMP280;56298;49.246;9.410;2022-12-18T09:09:10;100842.66;;;-3.91
69186;BMP280;56298;49.246;9.410;2022-12-18T09:11:36;100836.72;;;-3.93
69186;BMP280;56298;49.246;9.410;2022-12-18T09:14:02;100821.50;;;-3.60
69186;BMP280;56298;49.246;9.410;2022-12-18T09:16:28;100823.56;;;-3.62
69186;BMP280;56298;49.246;9.410;2022-12-18T09:18:57;100821.91;;;-3.63
69186;BMP280;56298;49.246;9.410;2022-12-18T09:21:29;100820.69;;;-3.60
69186;BMP280;56298;49.246;9.410;2022-12-18T09:23:55;100814.22;;;-3.46
69186;BMP280;56298;49.246;9.410;2022-12-18T09:26:22;100818.00;;;-3.60
69186;BMP280;56298;49.246;9.410;2022-12-18T09:28:47;100819.06;;;-3.68
69186;BMP280;56298;49.246;9.410;2022-12-18T09:31:13;100813.84;;;-3.56
69186;BMP280;56298;49.246;9.410;2022-12-18T09:33:39;100817.59;;;-3.25
69186;BMP280;56298;49.246;9.410;2022-12-18T09:36:06;100817.28;;;-3.42
69186;BMP280;56298;49.246;9.410;2022-12-18T09:38:33;100814.50;;;-3.22
69186;BMP280;56298;49.246;9.410;2022-12-18T09:41:13;100811.06;;;-3.10
69186;BMP280;56298;49.246;9.410;2022-12-18T09:43:46;100813.25;;;-2.94
69186;BMP280;56298;49.246;9.410;2022-12-18T09:46:18;100814.00;;;-2.86
69186;BMP280;56298;49.246;9.410;2022-12-18T09:48:47;100814.50;;;-2.96
69186;BMP280;56298;49.246;9.410;2022-12-18T09:51:18;100804.03;;;-2.79
69186;BMP280;56298;49.246;9.410;2022-12-18T09:53:52;100796.38;;;-3.01
69186;BMP280;56298;49.246;9.410;2022-12-18T09:56:20;100806.00;;;-2.93
69186;BMP280;56298;49.246;9.410;2022-12-18T09:58:58;100812.34;;;-3.13
69186;BMP280;56298;49.246;9.410;2022-12-18T10:01:25;100807.75;;;-3.06
69186;BMP280;56298;49.246;9.410;2022-12-18T10:03:51;100802.81;;;-3.09
69186;BMP280;56298;49.246;9.410;2022-12-18T10:06:22;100796.03;;;-2.86
69186;BMP280;56298;49.246;9.410;2022-12-18T10:11:51;100801.75;;;-2.57
69186;BMP280;56298;49.246;9.410;2022-12-18T10:14:46;100789.59;;;-2.41
69186;BMP280;56298;49.246;9.410;2022-12-18T10:17:28;100799.00;;;-2.31
69186;BMP280;56298;49.246;9.410;2022-12-18T10:25:22;100801.00;;;-2.27
69186;BMP280;56298;49.246;9.410;2022-12-18T10:27:53;100805.59;;;-1.97
69186;BMP280;56298;49.246;9.410;2022-12-18T10:30:22;100812.81;;;-1.78
69186;BMP280;56298;49.246;9.410;2022-12-18T10:32:47;100799.47;;;-1.85
69186;BMP280;56298;49.246;9.410;2022-12-18T10:35:25;100796.22;;;-1.87
69186;BMP280;56298;49.246;9.410;2022-12-18T10:40:28;100802.09;;;-1.97
69186;BMP280;56298;49.246;9.410;2022-12-18T10:43:12;100807.00;;;-1.94
69186;BMP280;56298;49.246;9.410;2022-12-18T10:45:37;100811.53;;;-1.76
69186;BMP280;56298;49.246;9.410;2022-12-18T10:48:03;100812.63;;;-1.65
69186;BMP280;56298;49.246;9.410;2022-12-18T10:50:32;100821.03;;;-1.73
69186;BMP280;56298;49.246;9.410;2022-12-18T10:53:03;100812.09;;;-1.55
69186;BMP280;56298;49.246;9.410;2022-12-18T10:55:34;100803.91;;;-1.60
69186;BMP280;56298;49.246;9.410;2022-12-18T10:58:18;100804.00;;;-1.67
69186;BMP280;56298;49.246;9.410;2022-12-18T11:03:34;100796.38;;;-1.03
69186;BMP280;56298;49.246;9.410;2022-12-18T11:06:15;100793.13;;;-1.17
69186;BMP280;56298;49.246;9.410;2022-12-18T11:08:42;100786.06;;;-1.19
69186;BMP280;56298;49.246;9.410;2022-12-18T11:11:19;100773.38;;;-1.54
69186;BMP280;56298;49.246;9.410;2022-12-18T11:13:59;100778.47;;;-1.34
69186;BMP280;56298;49.246;9.410;2022-12-18T11:16:26;100776.13;;;-1.30
69186;BMP280;56298;49.246;9.410;2022-12-18T11:18:52;100761.03;;;-1.19
69186;BMP280;56298;49.246;9.410;2022-12-18T11:21:18;100766.66;;;-1.33
69186;BMP280;56298;49.246;9.410;2022-12-18T11:23:49;100774.16;;;-0.99
69186;BMP280;56298;49.246;9.410;2022-12-18T11:26:15;100766.44;;;-0.95
69186;BMP280;56298;49.246;9.410;2022-12-18T11:33:39;100770.75;;;-1.30
69186;BMP280;56298;49.246;9.410;2022-12-18T11:36:08;100761.78;;;-1.54
69186;BMP280;56298;49.246;9.410;2022-12-18T11:38:39;100765.81;;;-1.33
69186;BMP280;56298;49.246;9.410;2022-12-18T11:41:29;100760.44;;;-1.21
69186;BMP280;56298;49.246;9.410;2022-12-18T11:44:22;100750.72;;;-0.98
69186;BMP280;56298;49.246;9.410;2022-12-18T11:46:55;100750.84;;;-1.17
69186;BMP280;56298;49.246;9.410;2022-12-18T11:49:33;100740.31;;;-0.95
69186;BMP280;56298;49.246;9.410;2022-12-18T11:54:43;100730.72;;;-1.02
69186;BMP280;56298;49.246;9.410;2022-12-18T12:00:02;100717.38;;;-1.09
69186;BMP280;56298;49.246;9.410;2022-12-18T12:05:34;100726.97;;;-1.13
69186;BMP280;56298;49.246;9.410;2022-12-18T12:14:24;100722.16;;;-0.87
69186;BMP280;56298;49.246;9.410;2022-12-18T12:16:57;100725.16;;;-0.72
69186;BMP280;56298;49.246;9.410;2022-12-18T12:22:17;100721.75;;;-0.55
69186;BMP280;56298;49.246;9.410;2022-12-18T12:25:25;100717.84;;;-0.47
69186;BMP280;56298;49.246;9.410;2022-12-18T12:28:00;100717.22;;;-0.79
69186;BMP280;56298;49.246;9.410;2022-12-18T12:33:30;100709.78;;;-1.00
69186;BMP280;56298;49.246;9.410;2022-12-18T12:36:16;100705.69;;;-1.03
69186;BMP280;56298;49.246;9.410;2022-12-18T12:38:52;100701.56;;;-0.94
69186;BMP280;56298;49.246;9.410;2022-12-18T12:41:22;100703.09;;;-0.98
69186;BMP280;56298;49.246;9.410;2022-12-18T12:44:09;100695.72;;;-1.02
69186;BMP280;56298;49.246;9.410;2022-12-18T12:46:39;100699.69;;;-1.05
69186;BMP280;56298;49.246;9.410;2022-12-18T12:49:13;100700.03;;;-1.01
69186;BMP280;56298;49.246;9.410;2022-12-18T12:51:41;100688.13;;;-0.94
69186;BMP280;56298;49.246;9.410;2022-12-18T12:54:17;100696.41;;;-0.83
69186;BMP280;56298;49.246;9.410;2022-12-18T12:57:02;100707.31;;;-0.90
69186;BMP280;56298;49.246;9.410;2022-12-18T12:59:47;100702.22;;;-0.74
69186;BMP280;56298;49.246;9.410;2022-12-18T13:08:10;100698.69;;;-0.63
69186;BMP280;56298;49.246;9.410;2022-12-18T13:10:45;100698.47;;;-0.73
69186;BMP280;56298;49.246;9.410;2022-12-18T13:13:14;100693.97;;;-0.97
69186;BMP280;56298;49.246;9.410;2022-12-18T13:20:36;100690.84;;;-0.64
69186;BMP280;56298;49.246;9.410;2022-12-18T13:23:28;100698.44;;;-0.61
69186;BMP280;56298;49.246;9.410;2022-12-18T13:34:19;100697.00;;;-0.93
69186;BMP280;56298;49.246;9.410;2022-12-18T13:36:45;100691.00;;;-0.83
69186;BMP280;56298;49.246;9.410;2022-12-18T13:41:38;100676.50;;;-0.94
69186;BMP280;56298;49.246;9.410;2022-12-18T13:44:34;100687.66;;;-1.02
69186;BMP280;56298;49.246;9.410;2022-12-18T13:47:02;100671.28;;;-1.13
69186;BMP280;56298;49.246;9.410;2022-12-18T13:49:39;100668.03;;;-1.15
69186;BMP280;56298;49.246;9.410;2022-12-18T13:52:17;100675.25;;;-1.15
69186;BMP280;56298;49.246;9.410;2022-12-18T13:54:47;100673.75;;;-1.11
69186;BMP280;56298;49.246;9.410;2022-12-18T13:57:31;100684.41;;;-1.28
69186;BMP280;56298;49.246;9.410;2022-12-18T13:59:57;100674.91;;;-1.43
69186;BMP280;56298;49.246;9.410;2022-12-18T14:02:25;100683.25;;;-1.33
69186;BMP280;56298;49.246;9.410;2022-12-18T14:04:51;100683.25;;;-1.33
69186;BMP280;56298;49.246;9.410;2022-12-18T14:07:28;100683.59;;;-1.29
69186;BMP280;56298;49.246;9.410;2022-12-18T14:09:58;100676.53;;;-1.54
69186;BMP280;56298;49.246;9.410;2022-12-18T14:12:28;100675.63;;;-1.36
69186;BMP280;56298;49.246;9.410;2022-12-18T14:17:52;100677.34;;;-1.65
69186;BMP280;56298;49.246;9.410;2022-12-18T14:20:19;100686.13;;;-1.70
69186;BMP280;56298;49.246;9.410;2022-12-18T14:22:46;100692.06;;;-1.68
69186;BMP280;56298;49.246;9.410;2022-12-18T14:27:42;100693.84;;;-1.74
69186;BMP280;56298;49.246;9.410;2022-12-18T14:30:23;100699.22;;;-1.74
69186;BMP280;56298;49.246;9.410;2022-12-18T14:35:35;100683.59;;;-1.95
69186;BMP280;56298;49.246;9.410;2022-12-18T14:40:43;100681.16;;;-2.28
69186;BMP280;56298;49.246;9.410;2022-12-18T14:43:10;100683.66;;;-2.45
69186;BMP280;56298;49.246;9.410;2022-12-18T14:45:41;100676.88;;;-2.47
69186;BMP280;56298;49.246;9.410;2022-12-18T14:48:18;100678.56;;;-2.53
69186;BMP280;56298;49.246;9.410;2022-12-18T14:50:45;100675.31;;;-2.55
69186;BMP280;56298;49.246;9.410;2022-12-18T14:55:56;100670.31;;;-2.70
69186;BMP280;56298;49.246;9.410;2022-12-18T14:58:21;100673.75;;;-2.82
69186;BMP280;56298;49.246;9.410;2022-12-18T15:00:47;100677.19;;;-2.93
69186;BMP280;56298;49.246;9.410;2022-12-18T15:03:18;100679.31;;;-3.02
69186;BMP280;56298;49.246;9.410;2022-12-18T15:05:45;100681.16;;;-3.03
69186;BMP280;56298;49.246;9.410;2022-12-18T15:08:34;100681.00;;;-3.01
69186;BMP280;56298;49.246;9.410;2022-12-18T15:11:00;100684.31;;;-3.06
69186;BMP280;56298;49.246;9.410;2022-12-18T15:13:25;100680.38;;;-3.03
69186;BMP280;56298;49.246;9.410;2022-12-18T15:15:52;100681.59;;;-2.99
69186;BMP280;56298;49.246;9.410;2022-12-18T15:18:20;100683.78;;;-3.15
69186;BMP280;56298;49.246;9.410;2022-12-18T15:21:06;100680.22;;;-3.27
69186;BMP280;56298;49.246;9.410;2022-12-18T15:23:36;100677.28;;;-3.25
69186;BMP280;56298;49.246;9.410;2022-12-18T15:26:05;100671.13;;;-3.26
69186;BMP280;56298;49.246;9.410;2022-12-18T15:28:49;100672.38;;;-3.29
69186;BMP280;56298;49.246;9.410;2022-12-18T15:33:43;100672.16;;;-3.53
69186;BMP280;56298;49.246;9.410;2022-12-18T15:36:16;100667.75;;;-3.47
69186;BMP280;56298;49.246;9.410;2022-12-18T15:38:41;100666.63;;;-3.58